X  Chiuso Dati meteorologici dell'aviazione (METAR)     LPMT Montijo Air Base
Temperatura
13°C Temperatura
12°C Punto di rugiada
94% Umidità



Vento
5 MPH
8 KM/O
2 M/S
4 KTS



220°
SW
Condizioni attuali

Nuvole per lo più sparse Nuvole per lo più sparse
Pressione 1019.98 (hPa) - 30.12 (inHg)
Visibilità 6 (miglio) - 9.7 (km)
Aeroporto
Codice-Aeroporto LPMT

Posizione: Montijo Air Base
Distanza: 6 (mi)

Metar:
LPMT 032200Z 22004KT 9999 SCT020 BKN034 13/12 Q1020

Ore: 2024-03-03 22:00 WET